Time;durP1;ratioP1;P1;durP2;ratioP2;P2;SDS_P1;SDS_P2;PMS_P1;PMS_P2;Temp;Humidity;BMP_temperature;BMP_pressure;BME280_temperature;BME280_humidity;BME280_pressure;Samples;Min_cycle;Max_cycle;Signal;HPM_P1;HPM_P2
2023/03/08 00:02:06;;;;;;;1999.90;999.90;;;5.30;99.20;;;;;;5090935;28;20456;-65
2023/03/08 00:04:33;;;;;;;1999.90;999.90;;;5.40;99.20;;;;;;5090440;28;20476;-67
2023/03/08 00:07:00;;;;;;;1999.90;999.90;;;5.40;99.40;;;;;;5091153;28;20979;-66
2023/03/08 00:09:27;;;;;;;1999.90;999.90;;;5.40;99.10;;;;;;5091239;28;20442;-67
2023/03/08 00:11:55;;;;;;;1999.90;999.90;;;5.50;99.40;;;;;;5091052;28;20443;-68
2023/03/08 00:14:22;;;;;;;1999.90;999.90;;;5.40;99.20;;;;;;5089718;28;20474;-66
2023/03/08 00:16:49;;;;;;;1999.90;999.90;;;5.40;99.30;;;;;;5091143;28;20450;-67
2023/03/08 00:19:16;;;;;;;1999.90;999.90;;;5.40;99.40;;;;;;5090721;28;20489;-66
2023/03/08 00:21:42;;;;;;;1999.90;999.90;;;5.40;99.40;;;;;;5090400;28;20442;-66
2023/03/08 00:24:10;;;;;;;1999.90;999.90;;;5.40;99.40;;;;;;5089884;28;20466;-67
2023/03/08 00:26:37;;;;;;;1999.90;999.90;;;5.50;99.30;;;;;;5090713;28;20511;-67
2023/03/08 00:29:05;;;;;;;1999.90;999.90;;;5.50;99.30;;;;;;5090907;28;20472;-67
2023/03/08 00:31:32;;;;;;;1999.90;999.90;;;5.50;99.30;;;;;;5090693;28;20452;-66
2023/03/08 00:33:59;;;;;;;1999.90;999.90;;;5.50;99.70;;;;;;5089649;28;20450;-67
2023/03/08 00:36:25;;;;;;;1999.90;999.90;;;5.40;99.40;;;;;;5091144;28;20450;-67
2023/03/08 00:38:52;;;;;;;1999.90;999.90;;;5.40;99.70;;;;;;5090980;28;20477;-66
2023/03/08 00:41:19;;;;;;;1999.90;999.90;;;5.40;99.60;;;;;;5091285;28;20450;-66
2023/03/08 00:43:46;;;;;;;1999.90;999.90;;;5.40;99.50;;;;;;5089500;28;20992;-67
2023/03/08 00:46:15;;;;;;;1999.90;999.90;;;5.40;99.80;;;;;;5090911;28;20442;-66
2023/03/08 00:48:42;;;;;;;1999.90;999.90;;;5.40;99.80;;;;;;5090565;28;20443;-67
2023/03/08 00:51:11;;;;;;;1999.90;999.90;;;5.40;99.70;;;;;;5090404;28;20450;-67
2023/03/08 00:53:38;;;;;;;1999.90;999.90;;;5.40;99.70;;;;;;5089386;28;20466;-67
2023/03/08 00:56:06;;;;;;;1999.90;999.90;;;5.40;99.90;;;;;;5090020;28;20452;-66
2023/03/08 00:58:33;;;;;;;1999.90;999.90;;;5.40;99.80;;;;;;5090731;28;20461;-67
2023/03/08 01:01:00;;;;;;;1999.90;999.90;;;5.30;99.90;;;;;;5090236;28;20562;-66
2023/03/08 01:03:28;;;;;;;1999.90;999.90;;;5.40;99.90;;;;;;5089525;28;20466;-66
2023/03/08 01:05:56;;;;;;;1999.90;999.90;;;5.40;99.90;;;;;;5090521;28;20454;-67
2023/03/08 01:08:24;;;;;;;1999.90;999.90;;;5.40;99.90;;;;;;5090434;28;20820;-67
2023/03/08 01:10:53;;;;;;;1999.90;999.90;;;5.40;99.90;;;;;;5090422;28;20449;-67
2023/03/08 01:13:21;;;;;;;1999.90;999.90;;;5.40;99.90;;;;;;5089006;28;20837;-68
2023/03/08 01:15:47;;;;;;;1999.90;999.90;;;5.40;99.90;;;;;;5090320;28;20460;-67
2023/03/08 01:18:15;;;;;;;1999.90;999.90;;;5.30;99.90;;;;;;5091400;28;20442;-66
2023/03/08 01:20:43;;;;;;;1999.90;999.90;;;5.20;99.90;;;;;;5092014;28;20482;-67
2023/03/08 01:23:10;;;;;;;1999.90;999.90;;;5.10;99.90;;;;;;5099244;28;20446;-67
2023/03/08 01:25:37;;;;;;;1999.90;999.90;;;5.00;99.90;;;;;;5102042;28;20446;-66
2023/03/08 01:28:04;;;;;;;1999.90;999.90;;;4.90;99.90;;;;;;5100773;28;20476;-66
2023/03/08 01:30:30;;;;;;;1999.90;999.90;;;4.80;99.90;;;;;;5101037;28;20449;-66
2023/03/08 01:32:57;;;;;;;1999.90;999.90;;;4.70;99.90;;;;;;5098098;28;20975;-67
2023/03/08 01:35:24;;;;;;;1999.90;999.90;;;4.70;99.90;;;;;;5090614;28;20446;-67
2023/03/08 01:37:53;;;;;;;1999.90;999.90;;;4.60;99.90;;;;;;5090010;28;20452;-66
2023/03/08 01:40:20;;;;;;;1999.90;999.90;;;4.50;99.90;;;;;;5090348;28;20854;-67
2023/03/08 01:42:47;;;;;;;1999.90;999.90;;;4.50;99.90;;;;;;5088584;28;20438;-66
2023/03/08 01:45:51;;;;;;;1999.90;999.90;;;4.50;99.90;;;;;;5090579;28;20490;-67
2023/03/08 01:48:20;;;;;;;1999.90;999.90;;;4.50;99.90;;;;;;5089914;28;20541;-66
2023/03/08 01:50:47;;;;;;;1999.90;999.90;;;4.40;99.90;;;;;;5089968;28;20441;-67
2023/03/08 01:53:16;;;;;;;1999.90;999.90;;;4.30;99.90;;;;;;5088207;28;20480;-67
2023/03/08 01:55:43;;;;;;;1999.90;999.90;;;4.20;99.90;;;;;;5090028;28;20446;-67
2023/03/08 01:58:10;;;;;;;1999.90;999.90;;;4.20;99.90;;;;;;5090019;28;21000;-67
2023/03/08 02:00:38;;;;;;;1999.90;999.90;;;4.20;99.90;;;;;;5089446;28;20473;-66
2023/03/08 02:03:08;;;;;;;1999.90;999.90;;;4.20;99.90;;;;;;5088433;28;20578;-66
2023/03/08 02:05:37;;;;;;;1999.90;999.90;;;4.20;99.90;;;;;;5089269;28;20974;-67
2023/03/08 02:08:04;;;;;;;1999.90;999.90;;;4.20;99.90;;;;;;5090001;28;20452;-67
2023/03/08 02:10:33;;;;;;;1999.90;999.90;;;4.10;99.90;;;;;;5089526;28;20448;-67
2023/03/08 02:13:00;;;;;;;1999.90;999.90;;;4.00;99.90;;;;;;5088383;28;20442;-67
2023/03/08 02:15:27;;;;;;;1999.90;999.90;;;3.90;99.90;;;;;;5089748;28;20446;-66
2023/03/08 02:17:54;;;;;;;1999.90;999.90;;;3.90;99.90;;;;;;5089349;28;20450;-67
2023/03/08 02:20:26;;;;;;;1999.90;999.90;;;3.90;99.90;;;;;;5089389;28;20563;-66
2023/03/08 02:22:54;;;;;;;1999.90;999.90;;;3.90;99.90;;;;;;5088263;28;20449;-67
2023/03/08 02:25:24;;;;;;;1999.90;999.90;;;3.80;99.90;;;;;;5089390;28;20813;-66
2023/03/08 02:27:52;;;;;;;1999.90;999.90;;;3.80;99.90;;;;;;5089522;28;20453;-67
2023/03/08 02:30:32;;;;;;;1999.90;999.90;;;3.80;99.90;;;;;;5089890;28;20828;-67
2023/03/08 02:32:58;;;;;;;1999.90;999.90;;;3.80;99.90;;;;;;5088612;28;20438;-66
2023/03/08 02:35:25;;;;;;;1999.90;999.90;;;3.80;99.90;;;;;;5089809;28;20456;-67
2023/03/08 02:37:53;;;;;;;1999.90;999.90;;;3.80;99.90;;;;;;5089617;28;20442;-67
2023/03/08 02:40:20;;;;;;;1999.90;999.90;;;3.80;99.90;;;;;;5089385;28;21014;-66
2023/03/08 02:42:47;;;;;;;1999.90;999.90;;;3.90;99.90;;;;;;5088677;28;20446;-66
2023/03/08 02:45:13;;;;;;;1999.90;999.90;;;3.90;99.90;;;;;;5079003;28;20462;-67
2023/03/08 02:47:41;;;;;;;1999.90;999.90;;;4.00;99.90;;;;;;5072903;28;20450;-67
2023/03/08 02:50:09;;;;;;;1999.90;999.90;;;4.10;99.90;;;;;;5072905;28;20447;-67
2023/03/08 02:52:36;;;;;;;1999.90;999.90;;;4.20;99.90;;;;;;5071320;28;20461;-67
2023/03/08 02:55:05;;;;;;;1999.90;999.90;;;4.30;99.90;;;;;;5072408;28;20463;-67
2023/03/08 02:57:31;;;;;;;1999.90;999.90;;;4.30;99.90;;;;;;5072075;28;20954;-67
2023/03/08 02:59:58;;;;;;;1999.90;999.90;;;4.30;99.90;;;;;;5072300;28;21207;-67
2023/03/08 03:02:25;;;;;;;1999.90;999.90;;;4.30;99.90;;;;;;5070852;28;20768;-63
2023/03/08 03:04:52;;;;;;;1999.90;999.90;;;4.40;99.90;;;;;;5072113;28;20473;-69
2023/03/08 03:07:18;;;;;;;1999.90;999.90;;;4.40;99.90;;;;;;5072369;28;20443;-65
2023/03/08 03:09:45;;;;;;;1999.90;999.90;;;4.40;99.90;;;;;;5071904;28;20814;-65
2023/03/08 03:12:13;;;;;;;1999.90;999.90;;;4.40;99.90;;;;;;5071906;28;20444;-66
2023/03/08 03:14:40;;;;;;;1999.90;999.90;;;4.40;99.90;;;;;;5071371;28;20467;-66
2023/03/08 03:17:07;;;;;;;1999.90;999.90;;;4.40;99.90;;;;;;5071929;28;20465;-66
2023/03/08 03:19:34;;;;;;;1999.90;999.90;;;4.40;99.90;;;;;;5071704;28;20471;-66
2023/03/08 03:22:00;;;;;;;1999.90;999.90;;;4.40;99.90;;;;;;5071768;28;20458;-65
2023/03/08 03:24:27;;;;;;;1999.90;999.90;;;4.40;99.90;;;;;;5071136;28;20467;-66
2023/03/08 03:26:54;;;;;;;1999.90;999.90;;;4.40;99.90;;;;;;5071385;28;20988;-65
2023/03/08 03:29:22;;;;;;;1999.90;999.90;;;4.50;99.90;;;;;;5072050;28;20454;-68
2023/03/08 03:31:49;;;;;;;1999.90;999.90;;;4.50;99.90;;;;;;5071654;28;20453;-68
2023/03/08 03:34:16;;;;;;;1999.90;999.90;;;4.50;99.90;;;;;;5070593;28;20467;-65
2023/03/08 03:36:43;;;;;;;1999.90;999.90;;;4.60;99.90;;;;;;5071758;28;20447;-65
2023/03/08 03:39:09;;;;;;;1999.90;999.90;;;4.50;99.90;;;;;;5071409;28;20439;-66
2023/03/08 03:41:36;;;;;;;1999.90;999.90;;;4.50;99.90;;;;;;5071508;28;20490;-66
2023/03/08 03:44:03;;;;;;;1999.90;999.90;;;4.50;99.90;;;;;;5070282;28;20459;-65
2023/03/08 03:46:31;;;;;;;1999.90;999.90;;;4.50;99.90;;;;;;5071681;28;20447;-66
2023/03/08 03:48:58;;;;;;;1999.90;999.90;;;4.40;99.90;;;;;;5071170;28;20537;-66
2023/03/08 03:51:25;;;;;;;1999.90;999.90;;;4.40;99.90;;;;;;5071301;28;20980;-66
2023/03/08 03:53:52;;;;;;;1999.90;999.90;;;4.40;99.90;;;;;;5070022;28;20466;-66
2023/03/08 03:56:20;;;;;;;1999.90;999.90;;;4.30;99.90;;;;;;5071330;28;20486;-68
2023/03/08 03:58:48;;;;;;;1999.90;999.90;;;4.20;99.90;;;;;;5071420;28;20451;-68
2023/03/08 04:01:16;;;;;;;1999.90;999.90;;;4.10;99.90;;;;;;5070912;28;20867;-68
2023/03/08 04:03:44;;;;;;;1999.90;999.90;;;4.10;99.90;;;;;;5070459;28;20837;-68
2023/03/08 04:06:14;;;;;;;1999.90;999.90;;;4.20;99.90;;;;;;5070893;28;20443;-68
2023/03/08 04:08:42;;;;;;;1999.90;999.90;;;4.10;99.90;;;;;;5071332;28;20443;-68
2023/03/08 04:11:09;;;;;;;1999.90;999.90;;;4.10;99.90;;;;;;5071069;28;20987;-66
2023/03/08 04:13:36;;;;;;;1999.90;999.90;;;4.20;99.90;;;;;;5069568;28;20478;-68
2023/03/08 04:16:10;;;;;;;1999.90;999.90;;;4.20;99.90;;;;;;5070609;28;21245;-68
2023/03/08 04:18:36;;;;;;;1999.90;999.90;;;4.30;99.90;;;;;;5070686;28;20447;-66
2023/03/08 04:21:05;;;;;;;1999.90;999.90;;;4.30;99.90;;;;;;5070748;28;20888;-69
2023/03/08 04:23:32;;;;;;;1999.90;999.90;;;4.30;99.90;;;;;;5069436;28;20472;-68
2023/03/08 04:26:00;;;;;;;1999.90;999.90;;;4.40;99.90;;;;;;5070807;28;20455;-67
2023/03/08 04:28:27;;;;;;;1999.90;999.90;;;4.40;99.90;;;;;;5071117;28;20450;-65
2023/03/08 04:30:53;;;;;;;1999.90;999.90;;;4.40;99.90;;;;;;5070510;28;20440;-64
2023/03/08 04:33:20;;;;;;;1999.90;999.90;;;4.40;99.90;;;;;;5069619;28;20477;-68
2023/03/08 04:35:47;;;;;;;1999.90;999.90;;;4.50;99.90;;;;;;5070071;28;20447;-67
2023/03/08 04:38:16;;;;;;;1999.90;999.90;;;4.50;99.90;;;;;;5071017;28;20447;-68
2023/03/08 04:43:28;;;;;;;1999.90;999.90;;;4.70;99.90;;;;;;5069331;28;20466;-67
2023/03/08 04:45:55;;;;;;;1999.90;999.90;;;4.70;99.90;;;;;;5070412;28;20540;-68
2023/03/08 04:48:22;;;;;;;1999.90;999.90;;;4.70;99.90;;;;;;5070274;28;20439;-68
2023/03/08 04:50:53;;;;;;;1999.90;999.90;;;4.70;99.90;;;;;;5070232;28;20441;-65
2023/03/08 04:53:21;;;;;;;1999.90;999.90;;;4.80;99.90;;;;;;5068880;28;20459;-68
2023/03/08 04:55:48;;;;;;;1999.90;999.90;;;4.80;99.90;;;;;;5070391;28;20438;-65
2023/03/08 04:58:16;;;;;;;1999.90;999.90;;;4.80;99.90;;;;;;5069913;28;20478;-66
2023/03/08 05:00:43;;;;;;;1999.90;999.90;;;4.70;99.90;;;;;;5069887;28;20885;-68
2023/03/08 05:03:10;;;;;;;1999.90;999.90;;;4.80;99.90;;;;;;5068911;28;20470;-66
2023/03/08 05:05:36;;;;;;;1999.90;999.90;;;4.80;99.90;;;;;;5069698;28;20500;-67
2023/03/08 05:08:04;;;;;;;1999.90;999.90;;;4.80;99.90;;;;;;5069993;28;20458;-69
2023/03/08 05:10:32;;;;;;;1999.90;999.90;;;4.80;99.90;;;;;;5069802;28;20497;-67
2023/03/08 05:12:59;;;;;;;1999.90;999.90;;;4.80;99.90;;;;;;5068618;28;20438;-65
2023/03/08 05:15:26;;;;;;;1999.90;999.90;;;4.80;99.90;;;;;;5069625;28;20440;-68
2023/03/08 05:17:53;;;;;;;1999.90;999.90;;;4.80;99.90;;;;;;5070268;28;20466;-67
2023/03/08 05:20:20;;;;;;;1999.90;999.90;;;4.80;99.90;;;;;;5069903;28;20479;-67
2023/03/08 05:22:47;;;;;;;1999.90;999.90;;;4.90;99.90;;;;;;5068925;28;20481;-68
2023/03/08 05:25:14;;;;;;;1999.90;999.90;;;4.90;99.90;;;;;;5070365;28;20554;-66
2023/03/08 05:27:42;;;;;;;1999.90;999.90;;;4.90;99.90;;;;;;5070309;28;20463;-66
2023/03/08 05:30:10;;;;;;;1999.90;999.90;;;4.90;99.90;;;;;;5070099;28;20443;-68
2023/03/08 05:32:37;;;;;;;1999.90;999.90;;;4.90;99.90;;;;;;5068592;28;20446;-67
2023/03/08 05:35:04;;;;;;;1999.90;999.90;;;5.00;99.90;;;;;;5070361;28;20466;-67
2023/03/08 05:37:31;;;;;;;1999.90;999.90;;;5.00;99.90;;;;;;5070044;28;20455;-68
2023/03/08 05:39:57;;;;;;;1999.90;999.90;;;5.00;99.90;;;;;;5069587;28;20451;-67
2023/03/08 05:42:26;;;;;;;1999.90;999.90;;;5.00;99.90;;;;;;5068671;28;20447;-65
2023/03/08 05:44:54;;;;;;;1999.90;999.90;;;5.10;99.90;;;;;;5069497;28;20853;-65
2023/03/08 05:47:21;;;;;;;1999.90;999.90;;;5.10;99.90;;;;;;5069787;28;20455;-67
2023/03/08 05:49:47;;;;;;;1999.90;999.90;;;5.10;99.90;;;;;;5069283;28;20450;-65
2023/03/08 05:52:14;;;;;;;1999.90;999.90;;;5.10;99.90;;;;;;5069069;28;20435;-68
2023/03/08 05:54:41;;;;;;;1999.90;999.90;;;5.20;99.90;;;;;;5068251;28;20475;-66
2023/03/08 05:57:08;;;;;;;1999.90;999.90;;;5.20;99.90;;;;;;5069129;28;20450;-65
2023/03/08 05:59:35;;;;;;;1999.90;999.90;;;5.20;99.90;;;;;;5069467;28;20447;-65
2023/03/08 06:02:03;;;;;;;1999.90;999.90;;;5.30;99.90;;;;;;5069300;28;21002;-65
2023/03/08 06:04:30;;;;;;;1999.90;999.90;;;5.30;99.90;;;;;;5068341;28;21371;-66
2023/03/08 06:06:57;;;;;;;1999.90;999.90;;;5.30;99.90;;;;;;5069489;28;20447;-68
2023/03/08 06:09:24;;;;;;;1999.90;999.90;;;5.30;99.90;;;;;;5069171;28;20450;-64
2023/03/08 06:11:50;;;;;;;1999.90;999.90;;;5.40;99.90;;;;;;5069115;28;20438;-66
2023/03/08 06:14:17;;;;;;;1999.90;999.90;;;5.40;99.90;;;;;;5067851;28;20473;-64
2023/03/08 06:16:47;;;;;;;1999.90;999.90;;;5.40;99.90;;;;;;5069157;28;20462;-67
2023/03/08 06:19:15;;;;;;;1999.90;999.90;;;5.50;99.90;;;;;;5071533;28;20454;-67
2023/03/08 06:21:42;;;;;;;1999.90;999.90;;;5.50;99.90;;;;;;5073192;28;20481;-66
2023/03/08 06:24:08;;;;;;;1999.90;999.90;;;5.60;99.90;;;;;;5071467;28;20463;-66
2023/03/08 06:26:35;;;;;;;1999.90;999.90;;;5.50;99.90;;;;;;5069340;28;20459;-67
2023/03/08 06:29:02;;;;;;;1999.90;999.90;;;5.50;99.90;;;;;;5069977;28;20477;-67
2023/03/08 06:31:29;;;;;;;1999.90;999.90;;;5.50;99.90;;;;;;5072619;28;20924;-67
2023/03/08 06:33:56;;;;;;;1999.90;999.90;;;5.50;99.90;;;;;;5071347;28;20470;-66
2023/03/08 06:36:24;;;;;;;1999.90;999.90;;;5.60;99.90;;;;;;5072751;28;20452;-66
2023/03/08 06:38:51;;;;;;;1999.90;999.90;;;5.70;99.90;;;;;;5073150;28;20458;-68
2023/03/08 06:41:20;;;;;;;1999.90;999.90;;;5.70;99.90;;;;;;5072713;28;20482;-67
2023/03/08 06:43:47;;;;;;;1999.90;999.90;;;5.70;99.90;;;;;;5071617;28;20524;-66
2023/03/08 06:46:16;;;;;;;1999.90;999.90;;;5.70;99.90;;;;;;5073084;28;20549;-67
2023/03/08 06:48:44;;;;;;;1999.90;999.90;;;5.80;99.90;;;;;;5072453;28;20451;-66
2023/03/08 06:51:10;;;;;;;1999.90;999.90;;;5.80;99.90;;;;;;5072499;28;20451;-66
2023/03/08 06:53:39;;;;;;;1999.90;999.90;;;5.80;99.90;;;;;;5071378;28;20823;-66
2023/03/08 06:56:08;;;;;;;1999.90;999.90;;;5.90;99.90;;;;;;5072608;28;20447;-66
2023/03/08 06:58:36;;;;;;;1999.90;999.90;;;6.00;99.90;;;;;;5072257;28;21024;-66
2023/03/08 07:01:04;;;;;;;1999.90;999.90;;;6.00;99.90;;;;;;5072641;28;20483;-67
2023/03/08 07:03:31;;;;;;;1999.90;999.90;;;6.10;99.90;;;;;;5070708;28;20478;-66
2023/03/08 07:05:59;;;;;;;1999.90;999.90;;;6.20;99.90;;;;;;5072602;28;20443;-67
2023/03/08 07:08:26;;;;;;;1999.90;999.90;;;6.20;99.90;;;;;;5072376;28;20459;-66
2023/03/08 07:10:54;;;;;;;1999.90;999.90;;;6.20;99.90;;;;;;5072267;28;20941;-67
2023/03/08 07:13:22;;;;;;;1999.90;999.90;;;6.30;99.90;;;;;;5071077;28;20478;-67
2023/03/08 07:15:49;;;;;;;1999.90;999.90;;;6.30;99.90;;;;;;5072108;28;20490;-67
2023/03/08 07:18:16;;;;;;;1999.90;999.90;;;6.20;99.90;;;;;;5072117;28;20825;-66
2023/03/08 07:20:42;;;;;;;1999.90;999.90;;;6.30;99.90;;;;;;5072029;28;20474;-66
2023/03/08 07:23:09;;;;;;;1999.90;999.90;;;6.30;99.90;;;;;;5070578;28;20443;-67
2023/03/08 07:25:38;;;;;;;1999.90;999.90;;;6.30;99.90;;;;;;5071708;28;20451;-67
2023/03/08 07:28:07;;;;;;;1999.90;999.90;;;6.30;99.90;;;;;;5072103;28;21046;-65
2023/03/08 07:30:33;;;;;;;1999.90;999.90;;;6.30;99.90;;;;;;5071376;28;20961;-67
2023/03/08 07:33:00;;;;;;;1999.90;999.90;;;6.40;99.90;;;;;;5070764;28;20459;-66
2023/03/08 07:35:27;;;;;;;1999.90;999.90;;;6.50;99.90;;;;;;5071734;28;20447;-67
2023/03/08 07:37:54;;;;;;;1999.90;999.90;;;6.50;99.90;;;;;;5072123;28;20521;-67
2023/03/08 07:40:21;;;;;;;1999.90;999.90;;;6.50;99.90;;;;;;5067962;28;21002;-66
2023/03/08 07:42:48;;;;;;;1999.90;999.90;;;6.50;99.90;;;;;;5067777;28;20481;-66
2023/03/08 07:45:17;;;;;;;1999.90;999.90;;;6.50;99.90;;;;;;5070000;28;20492;-67
2023/03/08 07:47:44;;;;;;;1999.90;999.90;;;6.50;99.90;;;;;;5070085;28;20473;-66
2023/03/08 07:50:11;;;;;;;1999.90;999.90;;;6.50;99.90;;;;;;5069871;28;20435;-66
2023/03/08 07:52:38;;;;;;;1999.90;999.90;;;6.50;99.90;;;;;;5069206;28;20439;-67
2023/03/08 07:55:06;;;;;;;1999.90;999.90;;;6.50;99.90;;;;;;5068983;28;20479;-67
2023/03/08 07:57:33;;;;;;;1999.90;999.90;;;6.60;99.90;;;;;;5071051;28;20800;-67
2023/03/08 08:00:00;;;;;;;1999.90;999.90;;;6.70;99.90;;;;;;5069395;28;20447;-67
2023/03/08 08:02:28;;;;;;;1999.90;999.90;;;6.70;99.90;;;;;;5063440;28;20491;-66
2023/03/08 08:04:54;;;;;;;1999.90;999.90;;;6.70;99.90;;;;;;5067464;28;20459;-66
2023/03/08 08:07:21;;;;;;;1999.90;999.90;;;6.70;99.90;;;;;;5070578;28;20952;-67
2023/03/08 08:09:48;;;;;;;1999.90;999.90;;;6.70;99.90;;;;;;5067436;28;20447;-66
2023/03/08 08:12:15;;;;;;;1999.90;999.90;;;6.80;99.90;;;;;;5064156;28;20450;-65
2023/03/08 08:14:41;;;;;;;1999.90;999.90;;;6.90;99.90;;;;;;5068327;28;20467;-67
2023/03/08 08:17:08;;;;;;;1999.90;999.90;;;7.00;99.90;;;;;;5067409;28;20469;-67
2023/03/08 08:19:37;;;;;;;1999.90;999.90;;;6.90;99.90;;;;;;5067647;28;20959;-67
2023/03/08 08:22:04;;;;;;;1999.90;999.90;;;7.00;99.90;;;;;;5066681;28;21027;-66
2023/03/08 08:24:32;;;;;;;1999.90;999.90;;;7.10;99.90;;;;;;5079632;28;21077;-65
2023/03/08 08:26:59;;;;;;;1999.90;999.90;;;7.20;99.90;;;;;;5061609;28;20933;-67
2023/03/08 08:29:26;;;;;;;1999.90;999.90;;;7.20;99.90;;;;;;5065140;28;20470;-67
2023/03/08 08:31:52;;;;;;;1999.90;999.90;;;7.30;99.90;;;;;;5068874;28;20531;-68
2023/03/08 08:34:20;;;;;;;1999.90;999.90;;;7.30;99.90;;;;;;5068399;28;20471;-66
2023/03/08 08:36:48;;;;;;;1999.90;999.90;;;7.20;99.90;;;;;;5070407;28;20436;-68
2023/03/08 08:39:15;;;;;;;1999.90;999.90;;;7.10;99.90;;;;;;5066911;28;20447;-67
2023/03/08 08:41:42;;;;;;;1999.90;999.90;;;7.10;99.90;;;;;;5062532;28;21512;-67
2023/03/08 08:44:08;;;;;;;1999.90;999.90;;;7.00;99.90;;;;;;5065118;28;21031;-66
2023/03/08 08:46:35;;;;;;;1999.90;999.90;;;6.90;99.90;;;;;;5070282;28;20446;-66
2023/03/08 08:49:04;;;;;;;1999.90;999.90;;;6.80;99.90;;;;;;5077913;28;20440;-67
2023/03/08 08:51:31;;;;;;;1999.90;999.90;;;6.70;99.90;;;;;;5070218;28;20481;-67
2023/03/08 08:53:59;;;;;;;1999.90;999.90;;;6.70;99.90;;;;;;5066842;28;20463;-66
2023/03/08 08:56:28;;;;;;;1999.90;999.90;;;6.80;99.90;;;;;;5070322;28;20829;-64
2023/03/08 08:58:55;;;;;;;1999.90;999.90;;;6.80;99.90;;;;;;5070356;28;20530;-67
2023/03/08 09:01:24;;;;;;;1999.90;999.90;;;6.70;99.90;;;;;;5080347;28;20471;-67
2023/03/08 09:03:50;;;;;;;1999.90;999.90;;;6.50;99.90;;;;;;5069153;28;20463;-66
2023/03/08 09:06:19;;;;;;;1999.90;999.90;;;6.50;99.90;;;;;;5068671;28;20451;-67
2023/03/08 09:08:49;;;;;;;1999.90;999.90;;;6.40;99.90;;;;;;5063049;28;20451;-67
2023/03/08 09:11:17;;;;;;;1999.90;999.90;;;6.30;99.90;;;;;;5061202;28;20446;-67
2023/03/08 09:13:44;;;;;;;1999.90;999.90;;;6.30;99.90;;;;;;5067148;28;20459;-67
2023/03/08 09:16:18;;;;;;;1999.90;999.90;;;6.30;99.90;;;;;;5068930;28;20455;-67
2023/03/08 09:18:45;;;;;;;1999.90;999.90;;;6.40;99.90;;;;;;5068514;28;20454;-66
2023/03/08 09:21:13;;;;;;;1999.90;999.90;;;6.40;99.90;;;;;;5069074;28;20443;-67
2023/03/08 09:23:39;;;;;;;1999.90;999.90;;;6.50;99.90;;;;;;5068673;28;21196;-66
2023/03/08 09:26:06;;;;;;;1999.90;999.90;;;6.60;99.90;;;;;;5069789;28;20454;-67
2023/03/08 09:28:35;;;;;;;1999.90;999.90;;;6.60;99.90;;;;;;5069739;28;20439;-67
2023/03/08 09:31:08;;;;;;;1999.90;999.90;;;6.70;99.90;;;;;;5070027;28;20443;-67
2023/03/08 09:33:35;;;;;;;1999.90;999.90;;;6.70;99.90;;;;;;5068376;28;20558;-67
2023/03/08 09:36:02;;;;;;;1999.90;999.90;;;6.80;99.90;;;;;;5069636;28;20969;-67
2023/03/08 09:38:29;;;;;;;1999.90;999.90;;;6.80;99.90;;;;;;5075678;28;20451;-66
2023/03/08 09:41:06;;;;;;;1999.90;999.90;;;6.80;99.90;;;;;;5069823;28;20457;-67
2023/03/08 09:43:45;;;;;;;1999.90;999.90;;;6.90;99.90;;;;;;5068144;28;20478;-67
2023/03/08 09:46:15;;;;;;;1999.90;999.90;;;6.90;99.90;;;;;;5069706;28;20450;-68
2023/03/08 09:48:43;;;;;;;1999.90;999.90;;;7.00;99.90;;;;;;5069505;28;20455;-67
2023/03/08 09:51:13;;;;;;;1999.90;999.90;;;7.20;99.90;;;;;;5069478;28;20451;-67
2023/03/08 09:53:45;;;;;;;1999.90;999.90;;;7.50;99.90;;;;;;5071221;28;20463;-67
2023/03/08 09:56:19;;;;;;;1999.90;999.90;;;7.70;99.90;;;;;;5073451;28;20438;-68
2023/03/08 09:58:51;;;;;;;1999.90;999.90;;;8.00;99.90;;;;;;5074083;28;20976;-67
2023/03/08 10:01:27;;;;;;;1999.90;999.90;;;8.20;99.90;;;;;;5074037;28;20445;-66
2023/03/08 10:04:22;;;;;;;1999.90;999.90;;;8.50;99.90;;;;;;5072240;28;20458;-66
2023/03/08 10:07:02;;;;;;;1999.90;999.90;;;8.70;99.90;;;;;;5073290;28;20427;-67
2023/03/08 10:09:33;;;;;;;1999.90;999.90;;;8.80;99.90;;;;;;5059106;28;20447;-70
2023/03/08 10:12:09;;;;;;;1999.90;999.90;;;9.00;99.90;;;;;;5073191;28;20453;-67
2023/03/08 10:14:41;;;;;;;1999.90;999.90;;;9.10;99.90;;;;;;5072322;28;20553;-66
2023/03/08 10:17:15;;;;;;;1999.90;999.90;;;9.30;99.90;;;;;;5072951;28;20447;-67
2023/03/08 10:19:46;;;;;;;1999.90;999.90;;;9.40;99.90;;;;;;5073091;28;20439;-67
2023/03/08 10:22:28;;;;;;;1999.90;999.90;;;9.40;99.90;;;;;;5072380;28;20470;-68
2023/03/08 10:25:00;;;;;;;1999.90;999.90;;;9.50;99.90;;;;;;5072627;28;20470;-66
2023/03/08 10:27:32;;;;;;;1999.90;999.90;;;9.40;99.90;;;;;;5072797;28;20454;-66
2023/03/08 10:30:02;;;;;;;1999.90;999.90;;;9.30;99.90;;;;;;5072921;28;20932;-67
2023/03/08 10:32:29;;;;;;;1999.90;999.90;;;9.20;99.90;;;;;;5072410;28;20442;-66
2023/03/08 10:35:00;;;;;;;1999.90;999.90;;;9.20;99.90;;;;;;5073072;28;20477;-67
2023/03/08 10:37:34;;;;;;;1999.90;999.90;;;9.20;99.90;;;;;;5073072;28;20455;-67
2023/03/08 10:40:05;;;;;;;1999.90;999.90;;;9.10;99.90;;;;;;5073238;28;20478;-66
2023/03/08 10:42:33;;;;;;;1999.90;999.90;;;9.00;99.90;;;;;;5071581;28;20475;-66
2023/03/08 10:45:04;;;;;;;1999.90;999.90;;;9.00;99.90;;;;;;5072878;28;20478;-67
2023/03/08 10:47:33;;;;;;;1999.90;999.90;;;9.10;99.90;;;;;;5072685;28;20976;-67
2023/03/08 10:50:14;;;;;;;1999.90;999.90;;;9.20;99.90;;;;;;5072025;28;20455;-68
2023/03/08 10:52:41;;;;;;;1999.90;999.90;;;9.30;99.90;;;;;;5068815;28;20975;-68
2023/03/08 10:55:13;;;;;;;1999.90;999.90;;;9.30;99.90;;;;;;5071009;28;20467;-67
2023/03/08 10:57:41;;;;;;;1999.90;999.90;;;9.50;99.90;;;;;;5072637;28;20459;-67
2023/03/08 11:00:29;;;;;;;1999.90;999.90;;;9.80;99.90;;;;;;5057771;28;20447;-66
2023/03/08 11:03:10;;;;;;;1999.90;999.90;;;10.10;99.90;;;;;;5064657;28;21113;-68
2023/03/08 11:05:37;;;;;;;1999.90;999.90;;;10.30;99.90;;;;;;5067507;28;20826;-68
2023/03/08 11:08:04;;;;;;;1999.90;999.90;;;10.50;99.90;;;;;;5068934;28;20431;-67
2023/03/08 11:10:32;;;;;;;1999.90;999.90;;;10.50;99.90;;;;;;5071235;28;20452;-68
2023/03/08 11:13:05;;;;;;;1999.90;999.90;;;10.50;99.90;;;;;;5070849;28;20443;-68
2023/03/08 11:15:37;;;;;;;1999.90;999.90;;;10.70;99.90;;;;;;5070618;28;20435;-67
2023/03/08 11:18:14;;;;;;;1999.90;999.90;;;10.90;99.90;;;;;;5072462;28;20442;-66
2023/03/08 11:20:45;;;;;;;1999.90;999.90;;;11.00;99.90;;;;;;5071942;28;20447;-68
2023/03/08 11:23:20;;;;;;;1999.90;999.90;;;11.30;99.90;;;;;;5070315;28;20525;-68
2023/03/08 11:25:54;;;;;;;1999.90;999.90;;;11.30;99.90;;;;;;5071318;28;20443;-68
2023/03/08 11:28:52;;;;;;;1999.90;999.90;;;11.20;99.90;;;;;;5072299;28;20505;-67
2023/03/08 11:31:28;;;;;;;1999.90;999.90;;;11.20;99.90;;;;;;5071572;28;20461;-67
2023/03/08 11:34:30;;;;;;;1999.90;999.90;;;11.20;99.90;;;;;;5070735;28;20459;-69
2023/03/08 11:37:04;;;;;;;1999.90;999.90;;;11.20;99.90;;;;;;5071673;28;20445;-68
2023/03/08 11:39:33;;;;;;;1999.90;999.90;;;11.30;99.90;;;;;;5071760;28;20443;-68
2023/03/08 11:42:05;;;;;;;1999.90;999.90;;;11.50;99.90;;;;;;5071019;28;20443;-67
2023/03/08 11:44:55;;;;;;;1999.90;999.90;;;11.60;99.90;;;;;;5067578;28;20471;-68
2023/03/08 11:47:45;;;;;;;1999.90;999.90;;;11.70;99.90;;;;;;5070294;28;21031;-67
2023/03/08 11:50:19;;;;;;;1999.90;999.90;;;11.90;99.90;;;;;;5070115;28;20473;-68
2023/03/08 11:52:59;;;;;;;1999.90;999.90;;;11.90;99.90;;;;;;5069882;28;20466;-68
2023/03/08 11:55:39;;;;;;;1999.90;999.90;;;11.90;99.90;;;;;;5071223;28;20451;-68
2023/03/08 11:58:13;;;;;;;1999.90;999.90;;;12.00;99.90;;;;;;5070874;28;20450;-67
2023/03/08 12:00:42;;;;;;;1999.90;999.90;;;12.00;99.90;;;;;;5071173;28;20439;-68
2023/03/08 12:03:15;;;;;;;1999.90;999.90;;;12.00;99.90;;;;;;5079991;28;21003;-67
2023/03/08 12:05:46;;;;;;;1999.90;999.90;;;12.00;99.90;;;;;;5051499;28;20475;-67
2023/03/08 12:08:16;;;;;;;1999.90;999.90;;;12.10;99.90;;;;;;5063142;28;20442;-67
2023/03/08 12:10:48;;;;;;;1999.90;999.90;;;12.10;99.90;;;;;;5071077;28;20451;-67
2023/03/08 12:13:20;;;;;;;1999.90;999.90;;;12.10;99.90;;;;;;5053798;28;20443;-67
2023/03/08 12:15:52;;;;;;;1999.90;999.90;;;12.20;99.90;;;;;;5068296;28;20454;-67
2023/03/08 12:18:25;;;;;;;1999.90;999.90;;;12.20;99.90;;;;;;5059964;28;20451;-67